Time;durP1;ratioP1;P1;durP2;ratioP2;P2;SDS_P1;SDS_P2;PMS_P1;PMS_P2;Temp;Humidity;BMP_temperature;BMP_pressure;BME280_temperature;BME280_humidity;BME280_pressure;Samples;Min_cycle;Max_cycle;Signal;HPM_P1;HPM_P2
2021/09/15 00:02:14;;;;;;;0.20;0.20;;;;;;;13.54;89.02;96986.88;6184794;23;20016;-64
2021/09/15 00:04:40;;;;;;;0.70;0.30;;;;;;;13.57;88.76;96989.03;6184360;23;20009;-63
2021/09/15 00:07:05;;;;;;;0.52;0.52;;;;;;;13.59;88.80;96984.06;6184464;23;20585;-64
2021/09/15 00:09:32;;;;;;;0.30;0.30;;;;;;;13.62;88.64;96988.97;6184485;23;20020;-63
2021/09/15 00:11:58;;;;;;;0.55;0.55;;;;;;;13.62;88.80;96985.41;6184291;23;20345;-63
2021/09/15 00:14:24;;;;;;;0.30;0.30;;;;;;;13.63;88.73;96989.78;6184348;23;20052;-63
2021/09/15 00:16:50;;;;;;;0.40;0.40;;;;;;;13.64;88.79;96986.72;6184415;23;20009;-64
2021/09/15 00:19:16;;;;;;;0.57;0.57;;;;;;;13.63;88.57;96985.13;6184317;23;20421;-65
2021/09/15 00:21:42;;;;;;;0.13;0.13;;;;;;;13.64;88.72;96991.44;6184337;23;20032;-63
2021/09/15 00:24:08;;;;;;;0.25;0.25;;;;;;;13.63;88.69;96981.53;6184425;23;20016;-62
2021/09/15 00:26:33;;;;;;;1.65;0.80;;;;;;;13.64;88.72;96992.25;6185293;23;20021;-64
2021/09/15 00:28:59;;;;;;;0.45;0.45;;;;;;;13.65;88.52;96982.06;6183818;23;20111;-63
2021/09/15 00:31:25;;;;;;;0.28;0.28;;;;;;;13.64;88.73;96986.72;6184569;23;20013;-64
2021/09/15 00:33:51;;;;;;;0.35;0.35;;;;;;;13.64;88.48;96991.44;6184253;23;20056;-64
2021/09/15 00:36:16;;;;;;;0.15;0.15;;;;;;;13.64;88.72;96986.72;6184594;23;20091;-63
2021/09/15 00:38:42;;;;;;;0.30;0.30;;;;;;;13.65;88.62;96988.38;6185006;23;20009;-63
2021/09/15 00:41:08;;;;;;;1.55;0.47;;;;;;;13.67;88.71;96988.09;6184009;23;20017;-63
2021/09/15 00:44:07;;;;;;;0.45;0.45;;;;;;;13.67;88.45;96966.81;6184526;23;20036;-63
2021/09/15 00:46:34;;;;;;;0.30;0.30;;;;;;;13.64;88.75;96972.94;6184281;23;20370;-62
2021/09/15 00:49:00;;;;;;;0.10;0.10;;;;;;;13.64;88.61;96967.44;6184337;23;20094;-63
2021/09/15 00:51:27;;;;;;;0.20;0.20;;;;;;;13.64;88.58;96970.19;6184071;23;20068;-63
2021/09/15 00:53:53;;;;;;;0.40;0.40;;;;;;;13.63;88.82;96973.25;6182768;23;20411;-64
2021/09/15 00:56:20;;;;;;;0.63;0.40;;;;;;;13.61;88.49;96976.31;6185051;23;20016;-63
2021/09/15 00:58:45;;;;;;;0.30;0.30;;;;;;;13.62;88.54;96968.88;6183789;23;20009;-63
2021/09/15 01:01:12;;;;;;;0.80;0.55;;;;;;;13.62;88.53;96966.13;6186434;23;20023;-64
2021/09/15 01:03:39;;;;;;;0.40;0.40;;;;;;;13.61;88.46;96964.47;6159285;23;20017;-62
2021/09/15 01:06:06;;;;;;;0.73;0.40;;;;;;;13.61;88.64;96970.78;6184465;23;20356;-64
2021/09/15 01:08:33;;;;;;;0.20;0.20;;;;;;;13.61;88.53;96961.72;6189292;23;20064;-63
2021/09/15 01:10:59;;;;;;;0.32;0.32;;;;;;;13.61;88.71;96968.03;6186417;23;20013;-64
2021/09/15 01:13:26;;;;;;;0.52;0.52;;;;;;;13.60;88.68;96958.16;6186583;23;20335;-63
2021/09/15 01:15:52;;;;;;;0.22;0.22;;;;;;;13.61;88.52;96958.94;6185931;23;20009;-63
2021/09/15 01:18:20;;;;;;;0.28;0.28;;;;;;;13.61;88.58;96945.97;6186226;23;20016;-62
2021/09/15 01:20:46;;;;;;;0.40;0.40;;;;;;;13.62;88.64;96950.38;6185895;23;20354;-62
2021/09/15 01:23:12;;;;;;;0.88;0.43;;;;;;;13.62;88.62;96938.53;6188325;23;20009;-64
2021/09/15 01:25:39;;;;;;;0.30;0.30;;;;;;;13.60;88.50;96936.09;6186043;23;20064;-63
2021/09/15 01:28:05;;;;;;;0.10;0.10;;;;;;;13.60;88.60;96938.84;6185452;23;20478;-63
2021/09/15 01:30:31;;;;;;;1.88;0.65;;;;;;;13.58;88.59;96938.31;6185663;23;20016;-63
2021/09/15 01:32:57;;;;;;;0.40;0.30;;;;;;;13.57;88.54;96931.13;6185574;23;20009;-62
2021/09/15 01:35:23;;;;;;;0.57;0.52;;;;;;;13.55;88.57;96933.38;6186230;23;20037;-63
2021/09/15 01:37:48;;;;;;;1.02;0.63;;;;;;;13.53;88.63;96930.13;6185914;23;20037;-64
2021/09/15 01:40:15;;;;;;;0.52;0.50;;;;;;;13.52;88.62;96930.44;6185651;23;20017;-64
2021/09/15 01:42:41;;;;;;;0.20;0.20;;;;;;;13.49;88.66;96932.66;6185699;23;20012;-64
2021/09/15 01:45:09;;;;;;;0.20;0.20;;;;;;;13.44;88.67;96931.91;6185504;23;20335;-65
2021/09/15 01:47:36;;;;;;;0.40;0.40;;;;;;;13.39;88.74;96929.25;6186241;23;20044;-63
2021/09/15 01:50:04;;;;;;;0.20;0.20;;;;;;;13.37;88.80;96936.97;6184457;23;20017;-64
2021/09/15 01:52:30;;;;;;;0.65;0.30;;;;;;;13.32;88.87;96944.19;6186182;23;20017;-65
2021/09/15 01:54:56;;;;;;;0.40;0.40;;;;;;;13.31;88.83;96947.25;6185343;23;20096;-66
2021/09/15 01:57:22;;;;;;;0.15;0.15;;;;;;;13.28;88.88;96951.41;6185280;23;20009;-66
2021/09/15 01:59:48;;;;;;;0.65;0.65;;;;;;;13.25;88.66;96956.69;6184591;23;20039;-65
2021/09/15 02:02:14;;;;;;;0.57;0.57;;;;;;;13.19;88.58;96947.69;6183821;23;20012;-64
2021/09/15 02:04:41;;;;;;;0.40;0.40;;;;;;;13.20;88.98;96943.00;6185386;23;20438;-68
2021/09/15 02:07:08;;;;;;;0.20;0.20;;;;;;;13.18;89.00;96954.31;6185308;23;20383;-66
2021/09/15 02:09:34;;;;;;;0.30;0.30;;;;;;;13.17;89.03;96952.66;6185398;23;20013;-65
2021/09/15 02:12:01;;;;;;;0.90;0.60;;;;;;;13.18;89.03;96950.75;6185396;23;20095;-66
2021/09/15 02:14:27;;;;;;;0.40;0.40;;;;;;;13.20;88.78;96959.53;6186234;23;20100;-67
2021/09/15 02:16:53;;;;;;;0.35;0.35;;;;;;;13.20;88.72;96949.31;6185641;23;20350;-64
2021/09/15 02:19:19;;;;;;;0.40;0.40;;;;;;;13.22;88.71;96955.38;6184922;23;20016;-65
2021/09/15 02:21:45;;;;;;;0.75;0.30;;;;;;;13.24;88.78;96955.06;6185407;23;20013;-64
2021/09/15 02:24:11;;;;;;;0.40;0.32;;;;;;;13.26;88.97;96958.34;6185294;23;20382;-64
2021/09/15 02:26:37;;;;;;;0.30;0.30;;;;;;;13.27;88.65;96952.53;6184894;23;20021;-68
2021/09/15 02:29:04;;;;;;;0.47;0.47;;;;;;;13.28;88.78;96953.34;6181692;23;20012;-66
2021/09/15 02:31:31;;;;;;;0.35;0.35;;;;;;;13.29;88.70;96966.00;6182830;23;20085;-63
2021/09/15 02:33:57;;;;;;;0.20;0.20;;;;;;;13.30;88.54;96965.72;6183961;23;20016;-65
2021/09/15 02:36:23;;;;;;;0.32;0.28;;;;;;;13.32;88.53;96969.00;6159304;23;20013;-63
2021/09/15 02:38:49;;;;;;;0.50;0.50;;;;;;;13.35;88.71;96959.31;6192596;23;20040;-65
2021/09/15 02:41:15;;;;;;;0.30;0.30;;;;;;;13.35;88.51;96967.59;6194210;23;20013;-67
2021/09/15 02:43:41;;;;;;;0.43;0.43;;;;;;;13.39;88.67;96963.13;6165169;23;20040;-70
2021/09/15 02:46:07;;;;;;;0.43;0.40;;;;;;;13.43;88.31;96963.38;6186892;23;20009;-66
2021/09/15 02:48:33;;;;;;;1.35;0.63;;;;;;;13.47;88.45;96956.13;6186515;23;20100;-64
2021/09/15 02:50:58;;;;;;;0.30;0.30;;;;;;;13.48;88.54;96953.06;6180892;23;20206;-64
2021/09/15 02:53:24;;;;;;;0.47;0.47;;;;;;;13.49;88.38;96953.91;6181754;23;20067;-64
2021/09/15 02:55:50;;;;;;;0.38;0.38;;;;;;;13.52;88.36;96955.25;6182348;23;20012;-63
2021/09/15 02:58:16;;;;;;;0.30;0.30;;;;;;;13.56;88.43;96965.38;6181193;23;20016;-64
2021/09/15 03:00:42;;;;;;;0.20;0.20;;;;;;;13.60;88.36;96962.81;6181927;23;20446;-65
2021/09/15 03:03:08;;;;;;;0.20;0.20;;;;;;;13.62;88.03;96957.84;6182452;23;20084;-63
2021/09/15 03:05:35;;;;;;;0.30;0.30;;;;;;;13.63;88.21;96959.47;6181543;23;20013;-64
2021/09/15 03:08:02;;;;;;;0.68;0.68;;;;;;;13.63;88.02;96963.06;6182179;23;20012;-65
2021/09/15 03:10:29;;;;;;;0.77;0.50;;;;;;;13.64;88.15;96970.19;6181654;23;20008;-65
2021/09/15 03:12:54;;;;;;;0.68;0.68;;;;;;;13.66;88.18;96967.97;6181638;23;20021;-66
2021/09/15 03:15:20;;;;;;;0.63;0.63;;;;;;;13.69;88.08;96966.53;6181881;23;20041;-65
2021/09/15 03:17:46;;;;;;;0.85;0.85;;;;;;;13.71;88.14;96966.25;6181079;23;20097;-64
2021/09/15 03:20:12;;;;;;;0.30;0.30;;;;;;;13.73;88.02;96967.56;6181868;23;20346;-68
2021/09/15 03:22:38;;;;;;;1.65;0.25;;;;;;;13.74;88.03;96966.47;6180996;23;20009;-64
2021/09/15 03:25:05;;;;;;;0.32;0.32;;;;;;;13.76;87.84;96961.44;6181339;23;20012;-64
2021/09/15 03:27:31;;;;;;;0.55;0.55;;;;;;;13.82;87.73;96970.47;6180423;23;20025;-65
2021/09/15 03:29:56;;;;;;;0.32;0.32;;;;;;;13.85;87.62;96961.59;6181200;23;20464;-65
2021/09/15 03:32:22;;;;;;;0.25;0.25;;;;;;;13.92;87.60;96962.00;6181658;23;20013;-65
2021/09/15 03:34:48;;;;;;;0.55;0.55;;;;;;;13.97;87.27;96967.47;6181382;23;20019;-64
2021/09/15 03:37:14;;;;;;;0.20;0.20;;;;;;;14.01;87.34;96962.16;6181350;23;20375;-65
2021/09/15 03:39:39;;;;;;;1.30;0.70;;;;;;;14.07;87.28;96962.88;6180674;23;20385;-65
2021/09/15 03:42:05;;;;;;;0.63;0.60;;;;;;;14.07;86.98;96955.41;6180672;23;20013;-64
2021/09/15 03:44:32;;;;;;;0.13;0.13;;;;;;;14.12;87.07;96958.09;6181476;23;20016;-64
2021/09/15 03:57:47;;;;;;;1.48;0.43;;;;;;;14.07;87.12;96962.88;6176167;23;20109;-62
2021/09/15 04:07:40;;;;;;;0.30;0.30;;;;;;;14.07;87.21;96954.59;6176640;23;20055;-64
2021/09/15 04:17:32;;;;;;;0.57;0.55;;;;;;;14.04;87.12;96961.53;6176805;23;20027;-63
2021/09/15 04:20:17;;;;;;;;;;;;;;;14.03;87.38;96965.44;6181755;23;20012;-63
2021/09/15 04:23:03;;;;;;;;;;;;;;;14.01;87.21;96959.38;6181715;23;19966;-64
2021/09/15 04:32:56;;;;;;;0.30;0.30;;;;;;;14.12;86.99;96954.50;6180989;23;20384;-64
2021/09/15 04:35:41;;;;;;;;;;;;;;;14.13;87.05;96953.38;6181404;23;20009;-62
2021/09/15 04:41:50;;;;;;;0.20;0.20;;;;;;;14.07;86.86;96949.88;6177230;23;19919;-63
2021/09/15 04:51:14;;;;;;;0.28;0.28;;;;;;;14.07;86.51;96933.31;6173010;23;20537;-61
2021/09/15 04:53:40;;;;;;;2.17;0.40;;;;;;;14.13;86.55;96945.09;6156695;23;20040;-62
2021/09/15 04:56:05;;;;;;;0.28;0.28;;;;;;;14.20;86.30;96949.09;6182750;23;20442;-63
2021/09/15 04:58:31;;;;;;;0.20;0.20;;;;;;;14.31;86.23;96943.38;6182317;23;20013;-63
2021/09/15 05:00:57;;;;;;;0.65;0.65;;;;;;;14.46;85.87;96948.63;6182437;23;20040;-65
2021/09/15 05:03:23;;;;;;;0.20;0.20;;;;;;;14.66;85.39;96947.44;6183023;23;20009;-63
2021/09/15 05:05:49;;;;;;;0.57;0.57;;;;;;;14.81;85.02;96931.66;6182824;23;20087;-64
2021/09/15 05:08:15;;;;;;;1.35;0.80;;;;;;;14.80;84.87;96936.38;6182656;23;20040;-64
2021/09/15 05:10:41;;;;;;;0.47;0.47;;;;;;;14.82;85.00;96942.41;6182962;23;20009;-66
2021/09/15 05:13:07;;;;;;;0.25;0.20;;;;;;;14.79;85.04;96937.50;6183241;23;20101;-62
2021/09/15 05:15:33;;;;;;;0.30;0.30;;;;;;;14.77;85.20;96937.00;6182907;23;20055;-63
2021/09/15 05:17:59;;;;;;;0.60;0.60;;;;;;;14.72;85.30;96945.38;6182812;23;20396;-75
2021/09/15 05:20:24;;;;;;;0.38;0.38;;;;;;;14.66;85.37;96946.59;6182678;23;20044;-65
2021/09/15 05:22:53;;;;;;;1.00;0.60;;;;;;;14.63;85.35;96939.75;6182999;23;20013;-66
2021/09/15 05:25:20;;;;;;;1.65;0.52;;;;;;;14.55;85.49;96929.41;6182454;23;20020;-64
2021/09/15 05:27:46;;;;;;;0.40;0.40;;;;;;;14.50;85.60;96943.28;6182192;23;20399;-62
2021/09/15 05:30:13;;;;;;;0.32;0.32;;;;;;;14.43;85.51;96935.44;6180860;23;20019;-66
2021/09/15 05:32:40;;;;;;;0.45;0.32;;;;;;;14.33;85.77;96936.44;6156269;23;20013;-64
2021/09/15 05:35:08;;;;;;;0.50;0.50;;;;;;;14.30;85.97;96925.19;6179886;23;20088;-62
2021/09/15 05:37:35;;;;;;;0.43;0.43;;;;;;;14.43;85.63;96934.59;6182291;23;20016;-69
2021/09/15 05:40:01;;;;;;;4.70;0.30;;;;;;;14.67;85.47;96924.19;6182811;23;20335;-63
2021/09/15 05:42:27;;;;;;;0.10;0.10;;;;;;;14.94;84.47;96922.53;6182288;23;20013;-64
2021/09/15 05:44:53;;;;;;;0.32;0.32;;;;;;;15.19;83.96;96914.81;6182114;23;20037;-64
2021/09/15 05:47:19;;;;;;;0.30;0.30;;;;;;;15.45;83.36;96916.97;6182160;23;20059;-67
2021/09/15 05:49:45;;;;;;;0.25;0.25;;;;;;;15.63;82.81;96917.94;6182003;23;20384;-65
2021/09/15 05:52:14;;;;;;;11.32;1.10;;;;;;;15.81;82.37;96910.59;6182654;23;20067;-63
2021/09/15 05:54:40;;;;;;;0.70;0.40;;;;;;;15.92;82.24;96903.66;6182247;23;20040;-68
2021/09/15 05:57:05;;;;;;;0.25;0.25;;;;;;;16.11;82.00;96900.69;6182601;23;20375;-64
2021/09/15 05:59:31;;;;;;;0.30;0.30;;;;;;;16.35;81.48;96894.75;6182010;23;20081;-63
2021/09/15 06:01:57;;;;;;;0.22;0.22;;;;;;;16.61;80.74;96896.81;6183450;23;20036;-65
2021/09/15 06:04:22;;;;;;;1.27;0.75;;;;;;;16.76;80.54;96899.13;6183704;23;20016;-66
2021/09/15 06:06:48;;;;;;;0.20;0.20;;;;;;;16.86;80.35;96900.78;6183440;23;20013;-63
2021/09/15 06:09:14;;;;;;;0.85;0.80;;;;;;;16.69;80.81;96911.81;6181890;23;20013;-64
2021/09/15 06:11:39;;;;;;;0.20;0.20;;;;;;;16.46;81.16;96909.97;6181752;23;20043;-63
2021/09/15 06:14:05;;;;;;;0.25;0.25;;;;;;;16.38;81.93;96907.16;6182097;23;20420;-66
2021/09/15 06:16:31;;;;;;;0.70;0.50;;;;;;;16.30;82.23;96903.22;6181922;23;20426;-72
2021/09/15 06:19:00;;;;;;;0.38;0.30;;;;;;;16.21;82.39;96902.34;6181773;23;20013;-66
2021/09/15 06:21:26;;;;;;;0.30;0.30;;;;;;;16.08;82.65;96899.34;6154805;23;20087;-64
2021/09/15 06:23:52;;;;;;;0.20;0.20;;;;;;;16.00;83.01;96897.34;6181672;23;20430;-63
2021/09/15 06:26:20;;;;;;;1.00;0.85;;;;;;;15.79;83.25;96899.03;6181837;23;20052;-64
2021/09/15 06:28:46;;;;;;;0.32;0.13;;;;;;;15.59;83.62;96895.59;6179415;23;20449;-63
2021/09/15 06:31:11;;;;;;;0.50;0.50;;;;;;;15.47;84.05;96900.88;6155779;23;20087;-64
2021/09/15 06:33:37;;;;;;;0.30;0.30;;;;;;;15.38;84.13;96898.03;6182321;23;20009;-65
2021/09/15 06:36:03;;;;;;;0.20;0.20;;;;;;;15.31;84.00;96887.44;6181278;23;20063;-64
2021/09/15 06:38:29;;;;;;;0.20;0.20;;;;;;;15.34;84.01;96892.34;6181396;23;20048;-65
2021/09/15 06:40:55;;;;;;;0.30;0.30;;;;;;;15.49;83.62;96893.91;6181344;23;20013;-65
2021/09/15 06:43:20;;;;;;;0.20;0.20;;;;;;;15.67;83.29;96894.03;6180159;23;20009;-64
2021/09/15 06:45:46;;;;;;;0.40;0.40;;;;;;;15.79;82.74;96891.53;6182090;23;20013;-63
2021/09/15 06:48:13;;;;;;;0.43;0.43;;;;;;;15.88;82.54;96880.53;6179643;23;20020;-63
2021/09/15 06:50:39;;;;;;;0.20;0.20;;;;;;;15.88;82.20;96884.09;6181474;23;20001;-63
2021/09/15 06:53:05;;;;;;;0.20;0.20;;;;;;;15.95;82.28;96872.59;6181381;23;20017;-65
2021/09/15 06:55:31;;;;;;;0.57;0.57;;;;;;;16.15;81.94;96865.69;6181506;23;20031;-63
2021/09/15 06:57:57;;;;;;;0.30;0.30;;;;;;;16.36;81.26;96860.38;6181031;23;20013;-64
2021/09/15 07:00:23;;;;;;;0.20;0.20;;;;;;;16.57;80.96;96855.06;6181886;23;20393;-64
2021/09/15 07:02:49;;;;;;;1.75;0.50;;;;;;;16.79;80.39;96859.69;6155613;23;20552;-62
2021/09/15 07:05:14;;;;;;;0.35;0.35;;;;;;;17.07;79.77;96862.19;6181136;23;20416;-61
2021/09/15 07:07:40;;;;;;;0.85;0.65;;;;;;;17.33;79.23;96848.34;6181107;23;20350;-62
2021/09/15 07:10:07;;;;;;;0.30;0.30;;;;;;;17.54;78.80;96852.41;6181811;23;20040;-63
2021/09/15 07:12:34;;;;;;;0.35;0.35;;;;;;;17.80;78.27;96858.72;6176151;23;20013;-62
2021/09/15 07:15:00;;;;;;;0.10;0.10;;;;;;;18.01;77.72;96856.06;6155375;23;20450;-61
2021/09/15 07:17:25;;;;;;;0.10;0.10;;;;;;;18.18;77.56;96866.31;6181137;23;20015;-63
2021/09/15 07:19:51;;;;;;;0.28;0.17;;;;;;;18.32;77.03;96856.94;6181528;23;20020;-64
2021/09/15 07:22:17;;;;;;;0.28;0.25;;;;;;;18.48;76.61;96869.13;6181517;23;20020;-67
2021/09/15 07:24:43;;;;;;;0.30;0.30;;;;;;;18.55;76.83;96866.66;6155019;23;20097;-63
2021/09/15 07:27:08;;;;;;;0.35;0.22;;;;;;;18.59;76.97;96863.19;6181591;23;20029;-65
2021/09/15 07:29:34;;;;;;;0.10;0.10;;;;;;;18.61;76.65;96861.72;6180650;23;20036;-63
2021/09/15 07:32:00;;;;;;;0.20;0.20;;;;;;;18.65;77.06;96862.66;6181417;23;20016;-64
2021/09/15 07:34:26;;;;;;;0.65;0.50;;;;;;;18.70;76.85;96851.34;6181033;23;20009;-64
2021/09/15 07:36:52;;;;;;;0.88;0.22;;;;;;;18.82;76.48;96852.59;6181489;23;20013;-65
2021/09/15 07:39:17;;;;;;;0.40;0.40;;;;;;;18.79;76.44;96850.50;6181293;23;20328;-65
2021/09/15 07:41:43;;;;;;;1.92;0.68;;;;;;;18.79;76.59;96847.72;6181052;23;20019;-63
2021/09/15 07:44:09;;;;;;;0.47;0.30;;;;;;;18.83;76.47;96846.69;6181371;23;20017;-66
2021/09/15 07:46:35;;;;;;;0.68;0.60;;;;;;;18.84;76.52;96847.50;6181395;23;20327;-66
2021/09/15 07:49:01;;;;;;;0.20;0.20;;;;;;;18.83;76.50;96841.13;6182298;23;20009;-63
2021/09/15 07:51:26;;;;;;;1.20;0.90;;;;;;;18.73;76.93;96842.34;6182466;23;20016;-65
2021/09/15 07:53:52;;;;;;;0.22;0.22;;;;;;;18.58;77.13;96840.16;6180921;23;20013;-65
2021/09/15 07:56:19;;;;;;;0.28;0.28;;;;;;;18.46;77.56;96842.81;6181613;23;20446;-64
2021/09/15 07:58:45;;;;;;;0.20;0.20;;;;;;;18.43;77.27;96837.94;6181077;23;20009;-66
2021/09/15 08:01:11;;;;;;;0.57;0.57;;;;;;;18.45;77.40;96847.56;6181520;23;20017;-64
2021/09/15 08:03:36;;;;;;;2.08;0.45;;;;;;;18.51;77.02;96840.66;6181173;23;20354;-64
2021/09/15 08:06:04;;;;;;;0.30;0.30;;;;;;;18.66;76.72;96830.13;6179942;23;20450;-66
2021/09/15 08:08:31;;;;;;;1.35;0.35;;;;;;;18.80;76.17;96827.09;6154462;23;20023;-65
2021/09/15 08:10:57;;;;;;;0.20;0.20;;;;;;;18.90;75.83;96826.72;6154457;23;20013;-65
2021/09/15 08:13:25;;;;;;;0.10;0.10;;;;;;;18.99;75.58;96829.44;6181307;23;20094;-64
2021/09/15 08:15:52;;;;;;;2.08;0.40;;;;;;;18.94;75.66;96835.22;6181577;23;20016;-67
2021/09/15 08:18:18;;;;;;;0.20;0.20;;;;;;;18.88;75.94;96832.63;6185425;23;20424;-65
2021/09/15 08:20:46;;;;;;;0.22;0.22;;;;;;;18.80;75.92;96830.69;6184454;23;20055;-66
2021/09/15 08:23:13;;;;;;;0.10;0.10;;;;;;;18.64;76.24;96824.91;6184130;23;20438;-64
2021/09/15 08:25:38;;;;;;;0.32;0.32;;;;;;;18.41;76.84;96831.91;6184530;23;20091;-64
2021/09/15 08:28:05;;;;;;;0.30;0.30;;;;;;;18.12;77.27;96822.38;6183886;23;20124;-66
2021/09/15 08:30:31;;;;;;;0.15;0.15;;;;;;;17.71;78.23;96824.63;6184742;23;20062;-64
2021/09/15 08:32:56;;;;;;;0.20;0.20;;;;;;;17.38;78.85;96839.03;6184591;23;20445;-64
2021/09/15 08:35:22;;;;;;;0.30;0.30;;;;;;;17.15;79.16;96846.69;6184616;23;20016;-67
2021/09/15 08:37:48;;;;;;;0.40;0.40;;;;;;;16.95;79.48;96837.09;6184566;23;20008;-65
2021/09/15 08:40:14;;;;;;;0.10;0.10;;;;;;;16.70;79.84;96835.88;6184670;23;20060;-65
2021/09/15 08:42:40;;;;;;;0.20;0.20;;;;;;;16.50;80.21;96828.97;6183550;23;20013;-65
2021/09/15 08:45:08;;;;;;;0.20;0.20;;;;;;;16.35;80.39;96828.28;6182492;23;20020;-65
2021/09/15 08:47:37;;;;;;;0.15;0.15;;;;;;;16.22;80.45;96820.91;6182600;23;20016;-64
2021/09/15 08:50:05;;;;;;;1.15;0.60;;;;;;;16.14;80.44;96818.94;6182837;23;20009;-64
2021/09/15 08:52:31;;;;;;;4.07;0.35;;;;;;;16.10;80.41;96818.75;6182627;23;20013;-65
2021/09/15 08:54:57;;;;;;;0.20;0.20;;;;;;;16.12;79.99;96822.00;6183147;23;20020;-66
2021/09/15 08:57:23;;;;;;;0.65;0.38;;;;;;;16.17;79.82;96821.06;6183235;23;20345;-66
2021/09/15 08:59:49;;;;;;;0.40;0.30;;;;;;;16.22;79.43;96813.41;6182125;23;20017;-66
2021/09/15 09:02:15;;;;;;;0.10;0.10;;;;;;;16.26;79.05;96810.84;6183053;23;20414;-68
2021/09/15 09:04:58;;;;;;;0.88;0.52;;;;;;;16.28;78.97;96808.53;6183911;23;20012;-67
2021/09/15 09:07:26;;;;;;;2.83;1.58;;;;;;;16.28;78.71;96797.47;6180638;23;20019;-65
2021/09/15 09:09:54;;;;;;;0.40;0.40;;;;;;;16.26;78.67;96799.75;6181876;23;20095;-69
2021/09/15 09:12:24;;;;;;;0.70;0.45;;;;;;;16.22;78.61;96791.25;6183169;23;20024;-66
2021/09/15 09:14:50;;;;;;;0.22;0.22;;;;;;;16.24;78.52;96797.31;6183162;23;20374;-67
2021/09/15 09:17:33;;;;;;;0.10;0.10;;;;;;;16.29;78.21;96802.69;6183071;23;20016;-64
2021/09/15 09:20:29;;;;;;;0.73;0.20;;;;;;;16.38;77.80;96797.16;6182953;23;20045;-65
2021/09/15 09:23:03;;;;;;;0.13;0.13;;;;;;;16.41;77.77;96795.72;6182638;23;20106;-64
2021/09/15 09:25:32;;;;;;;0.55;0.25;;;;;;;16.43;77.67;96798.97;6183195;23;20017;-66
2021/09/15 09:27:58;;;;;;;0.52;0.40;;;;;;;16.52;77.44;96804.53;6182121;23;20025;-67
2021/09/15 09:30:38;;;;;;;1.00;0.50;;;;;;;16.61;77.01;96806.19;6183054;23;20084;-67
2021/09/15 09:33:06;;;;;;;0.20;0.20;;;;;;;16.70;76.83;96802.63;6182774;23;20048;-65
2021/09/15 09:35:46;;;;;;;0.32;0.22;;;;;;;16.85;76.42;96809.66;6181126;23;20013;-66
2021/09/15 09:38:27;;;;;;;0.45;0.45;;;;;;;16.88;76.03;96795.16;6182116;23;20009;-65
2021/09/15 09:40:55;;;;;;;0.52;0.52;;;;;;;16.93;76.00;96793.06;6182416;23;20056;-67
2021/09/15 09:43:20;;;;;;;0.52;0.52;;;;;;;16.97;75.79;96795.97;6181720;23;20043;-66
2021/09/15 09:45:48;;;;;;;0.20;0.20;;;;;;;16.99;75.83;96800.06;6185309;23;20454;-67
2021/09/15 09:48:33;;;;;;;0.52;0.52;;;;;;;17.04;75.56;96796.31;6189509;23;20005;-66
2021/09/15 09:51:00;;;;;;;1.08;0.30;;;;;;;17.04;75.57;96790.75;6190771;23;20004;-67
2021/09/15 09:53:27;;;;;;;0.20;0.20;;;;;;;17.10;75.40;96786.66;6181334;23;20021;-65
2021/09/15 09:55:57;;;;;;;0.30;0.30;;;;;;;17.14;75.23;96784.88;6183370;23;20013;-67
2021/09/15 09:58:25;;;;;;;0.20;0.20;;;;;;;17.15;75.03;96777.38;6182221;23;20079;-70
2021/09/15 10:00:56;;;;;;;0.13;0.13;;;;;;;17.17;75.09;96775.09;6182585;23;20017;-66
2021/09/15 10:03:23;;;;;;;0.22;0.22;;;;;;;17.11;74.98;96773.66;6182510;23;20009;-67
2021/09/15 10:05:50;;;;;;;0.15;0.15;;;;;;;17.03;75.47;96764.16;6182002;23;20020;-67
2021/09/15 10:08:19;;;;;;;0.20;0.20;;;;;;;17.01;75.28;96773.97;6155791;23;20013;-65
2021/09/15 10:10:48;;;;;;;0.20;0.20;;;;;;;17.04;75.08;96784.41;6182477;23;20054;-67
2021/09/15 10:13:15;;;;;;;0.20;0.20;;;;;;;16.99;75.05;96796.47;6182148;23;20060;-68
2021/09/15 10:15:48;;;;;;;0.38;0.38;;;;;;;16.79;75.46;96782.06;6182403;23;20446;-67
2021/09/15 10:18:15;;;;;;;0.43;0.43;;;;;;;16.68;75.79;96783.56;6181929;23;20028;-67
2021/09/15 10:20:47;;;;;;;0.30;0.30;;;;;;;16.70;75.85;96778.50;6181958;23;20012;-65
2021/09/15 10:23:34;;;;;;;0.35;0.35;;;;;;;16.66;75.64;96783.03;6181845;23;20009;-66
2021/09/15 10:26:26;;;;;;;0.32;0.32;;;;;;;16.52;75.87;96776.81;6182004;23;20020;-67
2021/09/15 10:29:18;;;;;;;0.30;0.30;;;;;;;16.32;76.16;96770.78;6179976;23;20017;-67
2021/09/15 10:31:59;;;;;;;0.20;0.20;;;;;;;16.15;76.56;96773.50;6173511;23;20016;-65
2021/09/15 10:34:39;;;;;;;0.50;0.50;;;;;;;15.97;76.77;96762.34;6181720;23;20016;-65
2021/09/15 10:37:05;;;;;;;0.38;0.38;;;;;;;15.90;76.87;96779.44;6181984;23;20037;-66
2021/09/15 10:39:32;;;;;;;0.20;0.20;;;;;;;15.94;76.52;96771.31;6181587;23;20019;-65
2021/09/15 10:41:58;;;;;;;0.20;0.20;;;;;;;16.08;76.06;96782.28;6181972;23;20116;-65
2021/09/15 10:44:24;;;;;;;0.40;0.40;;;;;;;16.26;75.60;96783.13;6181621;23;20365;-65
2021/09/15 10:47:16;;;;;;;1.27;0.65;;;;;;;16.38;74.97;96775.00;6181544;23;20055;-66
2021/09/15 10:49:44;;;;;;;0.30;0.30;;;;;;;16.29;75.16;96766.69;6181722;23;20017;-63
2021/09/15 10:52:10;;;;;;;1.58;0.93;;;;;;;16.16;75.53;96769.59;6181838;23;20347;-67
2021/09/15 10:54:51;;;;;;;0.20;0.20;;;;;;;16.03;75.73;96751.97;6181560;23;20005;-65
2021/09/15 10:57:20;;;;;;;1.65;0.73;;;;;;;15.85;76.32;96756.63;6181480;23;20009;-68
2021/09/15 10:59:51;;;;;;;0.45;0.45;;;;;;;15.71;76.60;96757.53;6180815;23;20480;-69
2021/09/15 11:02:37;;;;;;;0.20;0.20;;;;;;;15.60;76.71;96750.63;6181612;23;20083;-68
2021/09/15 11:05:28;;;;;;;0.20;0.20;;;;;;;15.49;76.92;96752.84;6181729;23;20013;-70
2021/09/15 11:07:54;;;;;;;0.20;0.20;;;;;;;15.39;77.00;96761.44;6181760;23;20008;-66
2021/09/15 11:10:34;;;;;;;0.75;0.75;;;;;;;15.33;77.07;96760.75;6182233;23;20020;-66
2021/09/15 11:13:12;;;;;;;0.43;0.43;;;;;;;15.31;77.09;96754.72;6182304;23;20013;-64
2021/09/15 11:15:48;;;;;;;0.40;0.40;;;;;;;15.44;76.81;96752.19;6181671;23;20099;-68
2021/09/15 11:18:27;;;;;;;0.40;0.40;;;;;;;15.53;76.35;96756.63;6181552;23;20005;-67
2021/09/15 11:20:59;;;;;;;0.60;0.55;;;;;;;15.58;76.07;96750.94;6181961;23;20044;-66
2021/09/15 11:23:27;;;;;;;0.20;0.20;;;;;;;15.67;75.73;96739.13;6180153;23;20059;-73
2021/09/15 11:25:55;;;;;;;1.77;0.35;;;;;;;15.79;75.62;96735.78;6181706;23;20009;-66
2021/09/15 11:28:23;;;;;;;0.30;0.30;;;;;;;15.87;75.14;96733.03;6181091;23;20426;-66
2021/09/15 11:30:51;;;;;;;0.50;0.50;;;;;;;15.91;74.95;96731.25;6181921;23;20013;-67
2021/09/15 11:33:34;;;;;;;0.15;0.15;;;;;;;15.93;75.01;96728.19;6181640;23;20009;-65
2021/09/15 11:36:10;;;;;;;0.20;0.20;;;;;;;15.92;75.04;96726.53;6181228;23;20040;-68
2021/09/15 11:38:39;;;;;;;0.80;0.55;;;;;;;15.88;75.01;96731.88;6179601;23;20399;-63
2021/09/15 11:41:11;;;;;;;0.10;0.10;;;;;;;15.81;75.23;96723.25;6179496;23;20389;-65
2021/09/15 11:43:39;;;;;;;0.32;0.32;;;;;;;15.80;75.40;96723.56;6181532;23;20008;-62
2021/09/15 11:46:06;;;;;;;0.50;0.50;;;;;;;15.79;75.37;96724.72;6181098;23;20013;-65
2021/09/15 11:48:33;;;;;;;0.13;0.13;;;;;;;15.76;75.24;96706.75;6181476;23;20016;-63
2021/09/15 11:51:22;;;;;;;1.77;0.70;;;;;;;15.74;75.42;96693.25;6181093;23;20009;-66
2021/09/15 11:53:52;;;;;;;0.20;0.20;;;;;;;15.68;75.27;96677.09;6181673;23;20016;-65
2021/09/15 11:59:11;;;;;;;1.30;0.55;;;;;;;15.52;75.85;96694.13;6180656;23;20052;-63
2021/09/15 12:01:40;;;;;;;0.30;0.30;;;;;;;15.44;75.98;96691.34;6181204;23;20024;-63
2021/09/15 12:04:08;;;;;;;0.45;0.32;;;;;;;15.34;76.33;96679.44;6181423;23;20408;-63
2021/09/15 12:06:35;;;;;;;0.30;0.30;;;;;;;15.30;76.25;96689.50;6180905;23;20013;-63
2021/09/15 12:09:02;;;;;;;0.40;0.40;;;;;;;15.29;76.24;96690.63;6181549;23;20016;-63
2021/09/15 12:11:35;;;;;;;0.50;0.50;;;;;;;15.29;76.19;96689.81;6180423;23;20087;-64
2021/09/15 12:14:05;;;;;;;2.45;0.35;;;;;;;15.24;76.18;96680.50;6181341;23;20307;-65
2021/09/15 12:16:34;;;;;;;0.30;0.30;;;;;;;15.27;76.13;96672.69;6181092;23;20044;-67
2021/09/15 12:19:00;;;;;;;0.30;0.30;;;;;;;15.28;76.11;96677.91;6180700;23;20048;-65
2021/09/15 12:21:28;;;;;;;0.25;0.25;;;;;;;15.27;75.93;96679.06;6179483;23;20012;-64
2021/09/15 12:24:06;;;;;;;0.50;0.50;;;;;;;15.23;76.04;96678.06;6181313;23;20499;-66
2021/09/15 12:26:32;;;;;;;0.55;0.55;;;;;;;15.17;76.16;96676.56;6181007;23;20127;-63